Time;durP1;ratioP1;P1;durP2;ratioP2;P2;SDS_P1;SDS_P2;PMS_P1;PMS_P2;Temp;Humidity;BMP_temperature;BMP_pressure;BME280_temperature;BME280_humidity;BME280_pressure;Samples;Min_cycle;Max_cycle;Signal;HPM_P1;HPM_P2
2023/08/10 00:01:33;;;;;;;7.53;2.88;;;;;;;16.44;74.81;101984.94;5052936;28;20045;-60
2023/08/10 00:03:59;;;;;;;7.90;2.90;;;;;;;16.50;74.75;101982.31;5053216;28;20029;-60
2023/08/10 00:06:24;;;;;;;5.57;2.92;;;;;;;16.55;74.64;101990.34;5053342;28;20032;-60
2023/08/10 00:08:50;;;;;;;5.10;3.22;;;;;;;16.67;74.52;101982.41;5053307;28;20074;-60
2023/08/10 00:11:15;;;;;;;5.97;2.80;;;;;;;16.76;73.99;101988.69;5053368;28;20033;-60
2023/08/10 00:13:41;;;;;;;7.55;2.88;;;;;;;16.76;73.62;101990.47;5053088;28;20172;-60
2023/08/10 00:16:07;;;;;;;6.00;2.90;;;;;;;16.74;73.42;101989.56;5052989;28;20402;-60
2023/08/10 00:18:32;;;;;;;6.38;3.08;;;;;;;16.76;72.69;101993.13;5052697;28;20037;-60
2023/08/10 00:20:58;;;;;;;10.10;2.92;;;;;;;16.73;72.87;101990.44;5034768;28;20043;-60
2023/08/10 00:23:23;;;;;;;7.68;3.20;;;;;;;16.74;73.18;102003.81;5052951;28;20372;-60
2023/08/10 00:25:49;;;;;;;4.88;2.80;;;;;;;16.72;73.95;101991.31;5052947;28;20163;-60
2023/08/10 00:28:15;;;;;;;7.43;2.90;;;;;;;16.66;74.96;101992.19;5053076;28;20025;-60
2023/08/10 00:30:40;;;;;;;7.80;3.10;;;;;;;16.62;75.05;101997.50;5052906;28;20078;-60
2023/08/10 00:33:06;;;;;;;4.93;3.33;;;;;;;16.52;74.67;101989.44;5052773;28;20029;-60
2023/08/10 00:35:32;;;;;;;6.90;3.35;;;;;;;16.48;74.89;101981.41;5053061;28;20037;-60
2023/08/10 00:37:58;;;;;;;5.47;3.20;;;;;;;16.58;74.71;101990.38;5052974;28;20047;-61
2023/08/10 00:40:23;;;;;;;8.88;3.22;;;;;;;16.62;74.46;101997.50;5052834;28;20021;-60
2023/08/10 00:42:49;;;;;;;5.18;3.20;;;;;;;16.59;74.53;101989.47;5035015;28;20501;-60
2023/08/10 00:45:14;;;;;;;4.85;3.30;;;;;;;16.51;75.29;101990.31;5052682;28;20088;-60
2023/08/10 00:47:40;;;;;;;7.13;3.20;;;;;;;16.41;76.33;101988.50;5052649;28;20025;-61
2023/08/10 00:50:07;;;;;;;5.93;3.25;;;;;;;16.33;77.29;101984.91;5052526;28;20071;-60
2023/08/10 00:52:33;;;;;;;11.02;3.50;;;;;;;16.20;78.41;101980.38;5052662;28;20040;-60
2023/08/10 00:55:00;;;;;;;6.32;3.38;;;;;;;16.11;78.97;101991.91;5052537;28;20041;-60
2023/08/10 00:57:26;;;;;;;4.93;3.40;;;;;;;16.05;79.42;101986.50;5052509;28;20040;-60
2023/08/10 00:59:52;;;;;;;11.25;3.72;;;;;;;15.93;80.07;101987.34;5052790;28;20033;-60
2023/08/10 01:02:17;;;;;;;8.00;3.83;;;;;;;16.00;79.97;101991.81;5052325;28;20045;-60
2023/08/10 01:04:43;;;;;;;7.05;3.55;;;;;;;16.14;79.31;101991.88;5052510;28;20094;-60
2023/08/10 01:07:45;;;;;;;7.95;3.58;;;;;;;16.33;78.28;101979.56;5052658;28;20021;-60
2023/08/10 01:10:47;;;;;;;10.75;4.03;;;;;;;16.34;78.59;101980.47;5052861;28;20025;-60
2023/08/10 01:13:22;;;;;;;6.57;3.50;;;;;;;16.39;78.71;101981.38;5039348;28;20060;-61
2023/08/10 01:15:54;;;;;;;7.47;3.78;;;;;;;16.39;78.86;101990.25;5052479;28;20150;-61
2023/08/10 01:18:27;;;;;;;6.25;3.58;;;;;;;16.41;78.73;101984.94;5052707;28;20033;-61
2023/08/10 01:20:54;;;;;;;7.47;4.05;;;;;;;16.47;78.65;101996.53;5052519;28;20112;-60
2023/08/10 01:23:41;;;;;;;5.68;3.67;;;;;;;16.48;78.58;102002.75;5034524;28;20036;-60
2023/08/10 01:26:10;;;;;;;10.10;4.00;;;;;;;16.33;79.42;101994.69;5052600;28;20033;-60
2023/08/10 01:28:35;;;;;;;8.65;3.60;;;;;;;16.35;79.19;101995.56;5052259;28;20021;-60
2023/08/10 01:31:01;;;;;;;7.53;3.80;;;;;;;16.35;79.06;101995.56;5054797;28;20363;-60
2023/08/10 01:33:29;;;;;;;8.52;3.65;;;;;;;16.41;79.31;101999.19;5055967;28;20032;-60
2023/08/10 01:35:54;;;;;;;10.32;3.78;;;;;;;16.40;78.91;101994.72;5056351;28;20104;-61
2023/08/10 01:38:20;;;;;;;9.05;3.92;;;;;;;16.51;78.71;101998.31;5056174;28;20159;-60
2023/08/10 01:40:47;;;;;;;7.45;3.80;;;;;;;16.58;78.46;102001.94;5056099;28;20104;-60
2023/08/10 01:43:13;;;;;;;7.70;3.60;;;;;;;16.62;78.28;102001.06;5056142;28;20037;-60
2023/08/10 01:45:43;;;;;;;7.72;3.65;;;;;;;16.52;78.71;102000.09;5055725;28;20343;-60
2023/08/10 01:48:16;;;;;;;7.95;4.15;;;;;;;16.48;79.16;102006.31;5037946;28;20029;-60
2023/08/10 01:50:48;;;;;;;7.20;3.60;;;;;;;16.44;80.03;101999.16;5055504;28;20463;-60
2023/08/10 01:53:17;;;;;;;9.93;4.00;;;;;;;16.39;80.56;102002.72;5055663;28;20061;-61
2023/08/10 01:55:43;;;;;;;5.13;3.50;;;;;;;16.27;81.13;101996.44;5055691;28;20040;-60
2023/08/10 01:58:08;;;;;;;6.53;3.70;;;;;;;16.34;81.19;101996.47;5055806;28;20025;-60
2023/08/10 02:00:37;;;;;;;7.45;3.55;;;;;;;16.37;80.53;101996.50;5055283;28;20049;-60
2023/08/10 02:03:04;;;;;;;7.22;3.63;;;;;;;16.28;80.71;101989.31;5055495;28;20478;-60
2023/08/10 02:05:29;;;;;;;12.82;3.60;;;;;;;16.23;80.80;101996.38;5037481;28;20425;-60
2023/08/10 02:07:54;;;;;;;5.38;3.45;;;;;;;16.13;80.96;101990.13;5055630;28;20025;-60
2023/08/10 02:10:20;;;;;;;12.32;3.85;;;;;;;16.01;81.68;102006.03;5055463;28;20056;-60
2023/08/10 02:12:45;;;;;;;6.72;3.60;;;;;;;16.07;81.52;102002.53;5055283;28;20036;-60
2023/08/10 02:15:12;;;;;;;6.38;4.10;;;;;;;15.99;81.63;101997.13;5055524;28;20031;-60
2023/08/10 02:17:38;;;;;;;8.02;3.78;;;;;;;15.93;81.74;102006.00;5055213;28;20475;-61
2023/08/10 02:20:09;;;;;;;13.45;3.92;;;;;;;15.84;82.21;102003.25;5055277;28;20048;-60
2023/08/10 02:22:34;;;;;;;6.13;3.75;;;;;;;15.71;82.72;102009.34;5037237;28;20136;-60
2023/08/10 02:25:00;;;;;;;6.47;4.20;;;;;;;15.70;82.87;102002.25;5055008;28;20025;-60
2023/08/10 02:27:25;;;;;;;11.25;4.00;;;;;;;15.57;83.06;101998.56;5055299;28;20368;-60
2023/08/10 02:29:50;;;;;;;6.55;3.78;;;;;;;15.47;83.52;102008.25;5055039;28;20490;-60
2023/08/10 02:32:17;;;;;;;9.27;4.00;;;;;;;15.38;83.84;102010.81;5054804;28;20025;-60
2023/08/10 02:34:42;;;;;;;8.30;4.00;;;;;;;15.30;84.51;102014.28;5055152;28;20072;-61
2023/08/10 02:37:08;;;;;;;9.80;3.78;;;;;;;15.25;84.66;102011.59;5054922;28;20497;-59
2023/08/10 02:39:33;;;;;;;7.18;3.88;;;;;;;15.19;85.15;102020.38;5055018;28;20506;-60
2023/08/10 02:41:59;;;;;;;6.55;3.85;;;;;;;15.14;85.51;102011.47;5054229;28;20052;-60
2023/08/10 02:44:24;;;;;;;8.07;4.10;;;;;;;15.17;85.21;102014.16;5054882;28;20120;-59
2023/08/10 02:46:50;;;;;;;10.25;4.00;;;;;;;15.16;85.22;102014.13;5054659;28;20364;-60
2023/08/10 02:49:16;;;;;;;7.25;3.90;;;;;;;15.15;85.32;102010.56;5054689;28;20104;-59
2023/08/10 02:51:42;;;;;;;8.20;3.85;;;;;;;15.09;85.44;102012.28;5054612;28;20025;-60
2023/08/10 02:54:07;;;;;;;9.57;4.20;;;;;;;15.03;85.91;102011.34;5054501;28;20517;-60
2023/08/10 02:56:33;;;;;;;10.25;3.85;;;;;;;14.90;86.46;102008.50;5054499;28;20047;-60
2023/08/10 02:58:58;;;;;;;8.93;4.00;;;;;;;14.93;86.47;102008.56;5054783;28;20425;-60
2023/08/10 03:01:23;;;;;;;8.45;4.05;;;;;;;14.99;86.09;102012.19;5054271;28;20159;-60
2023/08/10 03:03:49;;;;;;;10.90;4.00;;;;;;;15.05;85.68;102018.47;5036644;28;20029;-60
2023/08/10 03:06:15;;;;;;;5.32;3.70;;;;;;;14.99;85.32;102020.19;5054528;28;20466;-60
2023/08/10 03:08:40;;;;;;;7.95;3.85;;;;;;;14.94;85.52;102011.22;5054294;28;20028;-61
2023/08/10 03:11:06;;;;;;;6.55;3.58;;;;;;;14.89;85.68;102020.03;5054272;28;20032;-60
2023/08/10 03:13:33;;;;;;;8.32;4.15;;;;;;;14.88;86.03;102023.59;5054201;28;20083;-60
2023/08/10 03:15:58;;;;;;;8.57;4.40;;;;;;;14.88;85.93;102034.22;5054474;28;20029;-60
2023/08/10 03:18:23;;;;;;;6.75;3.67;;;;;;;14.93;86.09;102024.53;5053864;28;20033;-60
2023/08/10 03:20:49;;;;;;;8.20;4.47;;;;;;;14.94;86.13;102028.97;5054046;28;20029;-60
2023/08/10 03:23:14;;;;;;;7.00;4.60;;;;;;;15.00;85.84;102031.72;5053917;28;20128;-60
2023/08/10 03:25:40;;;;;;;12.23;4.28;;;;;;;15.00;86.23;102029.06;5053992;28;20475;-60
2023/08/10 03:28:05;;;;;;;8.60;4.07;;;;;;;14.99;86.47;102029.94;5036087;28;20029;-60
2023/08/10 03:30:32;;;;;;;8.93;4.30;;;;;;;15.05;86.61;102035.31;5054164;28;20025;-60
2023/08/10 03:32:58;;;;;;;7.40;4.13;;;;;;;15.02;87.03;102033.50;5053680;28;20032;-59
2023/08/10 03:35:23;;;;;;;8.13;4.20;;;;;;;15.11;86.97;102030.06;5053744;28;20038;-60
2023/08/10 03:37:49;;;;;;;8.05;4.25;;;;;;;15.27;86.09;102034.66;5053932;28;20035;-60
2023/08/10 03:40:14;;;;;;;8.30;4.28;;;;;;;15.39;85.53;102027.69;5053623;28;20497;-60
2023/08/10 03:42:39;;;;;;;7.63;4.15;;;;;;;15.46;84.93;102034.84;5053815;28;20112;-60
2023/08/10 03:45:07;;;;;;;7.82;3.95;;;;;;;15.36;85.29;102030.31;5053441;28;20051;-59
2023/08/10 03:47:32;;;;;;;9.02;4.00;;;;;;;15.36;85.48;102035.66;5053723;28;20041;-60
2023/08/10 03:49:58;;;;;;;6.07;3.88;;;;;;;15.35;85.63;102026.75;5053624;28;20079;-60
2023/08/10 03:52:23;;;;;;;8.18;3.95;;;;;;;15.40;85.22;102033.03;5035555;28;20036;-60
2023/08/10 03:54:49;;;;;;;10.55;3.70;;;;;;;15.36;85.56;102035.66;5051398;28;20048;-60
2023/08/10 03:57:14;;;;;;;6.90;3.75;;;;;;;15.40;85.42;102030.38;5053459;28;20036;-60
2023/08/10 03:59:39;;;;;;;9.45;3.70;;;;;;;15.45;85.40;102025.97;5053533;28;20402;-60
2023/08/10 04:02:05;;;;;;;7.43;3.95;;;;;;;15.44;84.76;102031.28;5035307;28;20502;-60
2023/08/10 04:04:30;;;;;;;10.82;4.00;;;;;;;15.38;84.80;102031.25;5053556;28;20025;-60
2023/08/10 04:06:55;;;;;;;6.85;4.00;;;;;;;15.43;84.85;102042.84;5053496;28;20033;-60
2023/08/10 04:09:21;;;;;;;9.27;4.20;;;;;;;15.44;84.66;102042.84;5053207;28;20104;-60
2023/08/10 04:11:46;;;;;;;11.63;4.07;;;;;;;15.47;84.52;102037.53;5053267;28;20132;-60
2023/08/10 04:14:12;;;;;;;6.68;4.15;;;;;;;15.46;84.21;102033.09;5053129;28;20510;-60
2023/08/10 04:16:37;;;;;;;10.65;3.92;;;;;;;15.40;83.78;102035.69;5053001;28;20036;-60
2023/08/10 04:19:03;;;;;;;8.85;4.00;;;;;;;15.40;83.43;102042.78;5052940;28;20496;-60
2023/08/10 04:21:28;;;;;;;6.43;3.60;;;;;;;15.38;83.64;102042.78;5052297;28;20094;-60
2023/08/10 04:23:55;;;;;;;7.18;3.33;;;;;;;15.35;83.44;102048.06;5034768;28;20025;-60
2023/08/10 04:26:21;;;;;;;10.77;3.65;;;;;;;15.34;83.75;102056.06;5052698;28;20029;-60
2023/08/10 04:28:46;;;;;;;8.15;3.63;;;;;;;15.33;83.63;102048.91;5052744;28;20032;-59
2023/08/10 04:31:12;;;;;;;6.93;3.70;;;;;;;15.34;84.15;102048.97;5052391;28;20025;-60
2023/08/10 04:33:38;;;;;;;7.30;3.63;;;;;;;15.39;83.94;102046.34;5052625;28;20025;-60
2023/08/10 04:36:03;;;;;;;7.63;4.03;;;;;;;15.40;83.81;102049.00;5052787;28;20083;-60
2023/08/10 04:38:29;;;;;;;11.27;4.10;;;;;;;15.36;83.66;102051.63;5052472;28;20079;-60
2023/08/10 04:40:54;;;;;;;5.15;3.50;;;;;;;15.37;83.69;102053.41;5052190;28;20025;-60
2023/08/10 04:43:20;;;;;;;7.53;3.85;;;;;;;15.37;83.67;102050.75;5052648;28;20037;-60
2023/08/10 04:45:45;;;;;;;8.02;3.50;;;;;;;15.38;83.48;102057.88;5052195;28;20479;-60
2023/08/10 04:48:12;;;;;;;8.73;3.55;;;;;;;15.33;83.19;102054.25;5052543;28;20099;-60
2023/08/10 04:50:37;;;;;;;8.52;3.80;;;;;;;15.28;83.52;102059.53;5034194;28;20029;-60
2023/08/10 04:53:03;;;;;;;5.53;3.40;;;;;;;15.14;83.76;102059.38;5052390;28;20082;-60
2023/08/10 04:55:28;;;;;;;5.75;3.95;;;;;;;15.01;84.65;102062.78;5052359;28;20033;-60
2023/08/10 04:57:55;;;;;;;8.45;3.75;;;;;;;14.93;85.66;102068.00;5052313;28;20045;-60
2023/08/10 05:00:23;;;;;;;8.45;3.92;;;;;;;14.95;86.13;102074.25;5052198;28;20037;-60
2023/08/10 05:02:50;;;;;;;6.55;3.70;;;;;;;14.97;86.43;102069.81;5052181;28;20075;-60
2023/08/10 05:05:16;;;;;;;6.50;3.97;;;;;;;14.97;86.42;102072.50;5053594;28;20029;-60
2023/08/10 05:07:41;;;;;;;5.90;4.30;;;;;;;14.93;86.73;102059.13;5056004;28;20032;-60
2023/08/10 05:10:08;;;;;;;7.93;4.20;;;;;;;14.98;87.03;102060.97;5056150;28;20044;-60
2023/08/10 05:12:36;;;;;;;7.45;3.70;;;;;;;15.01;87.47;102061.00;5037929;28;20486;-61
2023/08/10 05:15:03;;;;;;;10.07;4.30;;;;;;;14.95;88.14;102070.69;5056281;28;20036;-60
2023/08/10 05:17:28;;;;;;;5.57;3.78;;;;;;;14.93;89.08;102061.78;5055889;28;20048;-60
2023/08/10 05:19:54;;;;;;;8.68;4.38;;;;;;;14.96;89.35;102067.16;5055863;28;20071;-60
2023/08/10 05:22:19;;;;;;;6.30;3.95;;;;;;;15.07;89.13;102053.97;5055801;28;20146;-59
2023/08/10 05:24:45;;;;;;;6.40;3.90;;;;;;;15.18;88.92;102061.19;5055922;28;20070;-60
2023/08/10 05:27:11;;;;;;;6.03;3.97;;;;;;;15.29;88.62;102064.00;5055794;28;20029;-60
2023/08/10 05:29:36;;;;;;;8.20;4.10;;;;;;;15.40;88.45;102069.44;5055757;28;20029;-60
2023/08/10 05:32:03;;;;;;;9.15;4.00;;;;;;;15.51;88.24;102070.44;5055614;28;20479;-60
2023/08/10 05:34:28;;;;;;;6.32;3.78;;;;;;;15.58;88.09;102064.28;5055428;28;20058;-60
2023/08/10 05:36:54;;;;;;;7.93;4.25;;;;;;;15.72;87.70;102067.13;5055662;28;20033;-59
2023/08/10 05:39:19;;;;;;;6.43;4.15;;;;;;;15.82;87.91;102068.09;5055409;28;20051;-60
2023/08/10 05:41:45;;;;;;;9.32;4.40;;;;;;;15.81;87.79;102060.97;5055646;28;20044;-60
2023/08/10 05:44:12;;;;;;;7.05;4.03;;;;;;;15.89;87.79;102053.94;5037585;28;20072;-60
2023/08/10 05:46:37;;;;;;;5.78;4.50;;;;;;;16.01;87.61;102054.91;5055307;28;20032;-60
2023/08/10 05:49:03;;;;;;;10.30;4.43;;;;;;;16.05;87.76;102066.50;5055413;28;20387;-60
2023/08/10 05:51:29;;;;;;;8.77;4.72;;;;;;;16.18;87.91;102063.03;5055292;28;20029;-60
2023/08/10 05:53:54;;;;;;;7.32;4.80;;;;;;;16.38;87.24;102056.94;5055421;28;20182;-60
2023/08/10 05:56:20;;;;;;;6.00;4.63;;;;;;;16.62;86.08;102058.88;5055419;28;20037;-60
2023/08/10 05:58:45;;;;;;;8.68;4.80;;;;;;;16.82;85.44;102056.31;5055289;28;20141;-60
2023/08/10 06:01:11;;;;;;;6.88;5.05;;;;;;;17.00;84.04;102064.41;5036954;28;20049;-60
2023/08/10 06:03:37;;;;;;;8.10;4.95;;;;;;;17.22;83.03;102058.25;5055432;28;20032;-60
2023/08/10 06:06:06;;;;;;;9.00;5.00;;;;;;;17.42;82.98;102058.28;5054895;28;20052;-59
2023/08/10 06:08:33;;;;;;;7.97;5.10;;;;;;;17.59;82.57;102058.31;5053705;28;20448;-60
2023/08/10 06:10:59;;;;;;;9.73;5.00;;;;;;;17.61;83.10;102053.88;5036916;28;20047;-60
2023/08/10 06:13:25;;;;;;;9.32;5.18;;;;;;;17.75;82.49;102059.25;5054742;28;20459;-60
2023/08/10 06:15:50;;;;;;;9.82;5.20;;;;;;;17.82;81.04;102060.19;5054615;28;20029;-61
2023/08/10 06:18:16;;;;;;;8.80;5.45;;;;;;;17.88;81.27;102055.69;5053991;28;20425;-60
2023/08/10 06:20:42;;;;;;;9.55;5.32;;;;;;;18.03;79.77;102062.84;5054540;28;20452;-60
2023/08/10 06:23:07;;;;;;;11.20;4.95;;;;;;;18.05;78.22;102058.38;5054618;28;20063;-61
2023/08/10 06:25:33;;;;;;;9.13;4.82;;;;;;;17.93;77.00;102059.25;5054501;28;20029;-60
2023/08/10 06:27:59;;;;;;;10.15;5.30;;;;;;;17.98;77.82;102062.81;5054411;28;20083;-60
2023/08/10 06:30:25;;;;;;;8.57;4.97;;;;;;;18.07;77.42;102058.34;5054494;28;20463;-60
2023/08/10 06:32:51;;;;;;;8.77;4.75;;;;;;;18.14;77.57;102058.34;5054542;28;20029;-60
2023/08/10 06:35:19;;;;;;;10.15;4.47;;;;;;;18.29;77.34;102061.94;5036674;28;20459;-60
2023/08/10 06:37:44;;;;;;;9.77;4.80;;;;;;;18.29;77.40;102065.50;5054262;28;20423;-59
2023/08/10 06:40:11;;;;;;;11.27;4.65;;;;;;;18.39;77.68;102058.31;5036553;28;20032;-60
2023/08/10 06:42:37;;;;;;;8.52;4.68;;;;;;;18.51;77.44;102052.94;5054247;28;20041;-60
2023/08/10 06:45:04;;;;;;;10.60;4.70;;;;;;;18.71;76.84;102052.91;5054331;28;20485;-60
2023/08/10 06:47:30;;;;;;;12.23;4.68;;;;;;;18.97;77.51;102048.34;5054434;28;20044;-60
2023/08/10 06:49:56;;;;;;;7.75;4.78;;;;;;;19.27;76.01;102049.06;5054010;28;20031;-60
2023/08/10 06:52:24;;;;;;;10.80;5.10;;;;;;;19.49;75.79;102044.47;5053874;28;20029;-60
2023/08/10 06:54:50;;;;;;;8.93;4.85;;;;;;;19.59;73.81;102046.16;5053903;28;20047;-60
2023/08/10 06:57:15;;;;;;;8.80;4.47;;;;;;;19.78;74.19;102044.25;5053908;28;20111;-60
2023/08/10 06:59:40;;;;;;;7.20;4.82;;;;;;;19.90;72.62;102040.59;5053948;28;20027;-60
2023/08/10 07:02:06;;;;;;;9.65;4.65;;;;;;;20.04;71.58;102040.47;5053745;28;20071;-60
2023/08/10 07:04:31;;;;;;;8.27;4.40;;;;;;;20.05;70.47;102029.72;5053867;28;20107;-60
2023/08/10 07:06:57;;;;;;;11.30;4.35;;;;;;;20.25;69.94;102032.19;5053632;28;20083;-60
2023/08/10 07:09:25;;;;;;;7.97;4.18;;;;;;;20.43;69.08;102037.38;5053747;28;20029;-60
2023/08/10 07:11:50;;;;;;;10.25;4.57;;;;;;;20.69;68.48;102042.50;5053568;28;20108;-60
2023/08/10 07:14:16;;;;;;;8.60;3.90;;;;;;;20.85;66.03;102043.16;5053782;28;20032;-60
2023/08/10 07:16:41;;;;;;;6.20;4.00;;;;;;;20.73;63.79;102040.66;5035442;28;20463;-60
2023/08/10 07:19:07;;;;;;;7.18;4.25;;;;;;;20.71;66.69;102035.28;5053635;28;20033;-60
2023/08/10 07:21:33;;;;;;;8.55;3.97;;;;;;;20.93;66.31;102041.28;5053402;28;20057;-60
2023/08/10 07:23:58;;;;;;;6.88;3.65;;;;;;;21.16;64.28;102042.78;5053632;28;20108;-61
2023/08/10 07:26:25;;;;;;;7.38;3.50;;;;;;;21.44;63.99;102043.28;5053721;28;20474;-60
2023/08/10 07:28:50;;;;;;;6.38;3.40;;;;;;;21.73;61.32;102046.41;5053359;28;20029;-60
2023/08/10 07:31:16;;;;;;;4.93;2.90;;;;;;;21.73;52.24;102048.22;5053544;28;20025;-61
2023/08/10 07:33:43;;;;;;;3.88;2.47;;;;;;;21.87;52.91;102047.97;5053753;28;20029;-58
2023/08/10 07:36:08;;;;;;;6.88;2.55;;;;;;;22.07;52.26;102047.63;5053419;28;20036;-59
2023/08/10 07:38:33;;;;;;;5.32;2.55;;;;;;;22.40;53.55;102056.94;5053285;28;20048;-59
2023/08/10 07:40:59;;;;;;;6.68;2.80;;;;;;;22.59;48.27;102047.56;5053331;28;20044;-58
2023/08/10 07:43:24;;;;;;;9.00;4.68;;;;;;;22.91;51.73;102043.34;5053054;28;20029;-58
2023/08/10 07:45:50;;;;;;;6.57;2.60;;;;;;;22.76;50.48;102039.13;5035159;28;20032;-59
2023/08/10 07:48:15;;;;;;;5.47;2.40;;;;;;;22.73;50.34;102045.47;5052944;28;20037;-59
2023/08/10 07:50:41;;;;;;;5.93;2.45;;;;;;;22.60;52.39;102046.63;5053052;28;20021;-59
2023/08/10 07:53:06;;;;;;;7.38;4.60;;;;;;;22.69;47.45;102054.53;5052257;28;20425;-59
2023/08/10 07:55:32;;;;;;;7.68;2.10;;;;;;;22.98;49.36;102053.06;5053208;28;20477;-59
2023/08/10 07:57:57;;;;;;;4.53;2.10;;;;;;;23.26;46.96;102056.06;5053162;28;20528;-59
2023/08/10 08:00:23;;;;;;;3.75;2.00;;;;;;;23.58;43.60;102057.09;5052602;28;20049;-59
2023/08/10 08:02:51;;;;;;;3.55;2.30;;;;;;;23.65;43.35;102050.69;5051422;28;20478;-60
2023/08/10 08:05:17;;;;;;;5.70;2.30;;;;;;;23.72;43.97;102054.97;5052688;28;20052;-59
2023/08/10 08:07:44;;;;;;;3.17;1.92;;;;;;;23.84;41.72;102060.06;5052895;28;20025;-60
2023/08/10 08:10:10;;;;;;;4.68;2.00;;;;;;;23.83;40.32;102054.72;5052630;28;20063;-59
2023/08/10 08:12:36;;;;;;;4.00;2.10;;;;;;;23.93;41.06;102050.84;5052890;28;20060;-60
2023/08/10 08:15:03;;;;;;;3.97;1.90;;;;;;;24.01;40.99;102050.66;5052649;28;20437;-59
2023/08/10 08:18:06;;;;;;;4.22;2.10;;;;;;;24.10;42.48;102045.91;5051397;28;20439;-59
2023/08/10 08:20:32;;;;;;;4.68;1.90;;;;;;;24.18;41.79;102040.31;5034296;28;20119;-59
2023/08/10 08:22:57;;;;;;;3.53;1.90;;;;;;;24.42;40.81;102038.78;5034629;28;20386;-59
2023/08/10 08:25:22;;;;;;;3.58;2.30;;;;;;;24.42;41.25;102039.69;5034507;28;20028;-59
2023/08/10 08:27:48;;;;;;;4.30;2.70;;;;;;;24.39;41.66;102044.28;5052563;28;20063;-59
2023/08/10 08:30:13;;;;;;;5.30;1.83;;;;;;;24.59;39.50;102047.31;5052599;28;20075;-59
2023/08/10 08:32:39;;;;;;;5.50;2.10;;;;;;;24.54;38.26;102049.25;5052333;28;20467;-60
2023/08/10 08:35:04;;;;;;;6.03;2.20;;;;;;;24.71;38.39;102046.97;5052406;28;20041;-60
2023/08/10 08:37:32;;;;;;;3.25;1.83;;;;;;;25.07;37.95;102056.72;5052459;28;20053;-60
2023/08/10 08:39:57;;;;;;;5.93;2.05;;;;;;;25.35;38.88;102054.06;5052260;28;20498;-59
2023/08/10 08:42:24;;;;;;;4.95;2.10;;;;;;;25.29;39.09;102048.84;5052322;28;20124;-60
2023/08/10 08:44:50;;;;;;;3.65;1.98;;;;;;;25.29;36.40;102049.75;5052205;28;20481;-59
2023/08/10 08:47:16;;;;;;;3.85;2.10;;;;;;;25.38;39.82;102052.16;5052246;28;20025;-59
2023/08/10 08:49:41;;;;;;;4.32;2.03;;;;;;;25.43;39.21;102050.16;5034410;28;20055;-59
2023/08/10 08:52:07;;;;;;;4.63;2.30;;;;;;;25.73;38.21;102042.88;5051933;28;20035;-59
2023/08/10 08:54:33;;;;;;;3.28;2.00;;;;;;;25.93;38.05;102046.78;5052235;28;20031;-59
2023/08/10 08:56:58;;;;;;;3.47;2.05;;;;;;;25.55;37.82;102051.59;5052163;28;20052;-60
2023/08/10 08:59:24;;;;;;;4.75;1.83;;;;;;;25.71;37.79;102054.69;5052070;28;20029;-59
2023/08/10 09:01:49;;;;;;;5.85;2.00;;;;;;;25.87;38.77;102049.69;5052131;28;20132;-60
2023/08/10 09:04:15;;;;;;;6.00;2.03;;;;;;;25.69;38.48;102043.91;5051969;28;20053;-59
2023/08/10 09:06:40;;;;;;;5.32;2.13;;;;;;;25.89;38.84;102042.41;5052334;28;20536;-59
2023/08/10 09:09:06;;;;;;;4.20;2.40;;;;;;;25.85;38.44;102032.59;5051968;28;20459;-60
2023/08/10 09:11:31;;;;;;;4.35;2.10;;;;;;;25.55;40.04;102034.47;5052028;28;20017;-59
2023/08/10 09:14:08;;;;;;;4.10;2.00;;;;;;;25.38;42.78;102027.78;5052116;28;20044;-60
2023/08/10 09:16:35;;;;;;;3.30;2.10;;;;;;;25.23;39.80;102022.88;5052006;28;20028;-59
2023/08/10 09:19:02;;;;;;;4.68;2.17;;;;;;;25.19;40.64;102022.09;5052118;28;20025;-59
2023/08/10 09:21:31;;;;;;;5.35;2.25;;;;;;;25.35;40.32;102024.28;5051710;28;20479;-59
2023/08/10 09:23:58;;;;;;;3.70;1.90;;;;;;;25.38;39.70;102022.38;5051941;28;20327;-60
2023/08/10 09:26:24;;;;;;;4.75;1.90;;;;;;;25.20;42.16;102026.56;5051822;28;20495;-60
2023/08/10 09:28:51;;;;;;;4.00;2.00;;;;;;;24.93;41.67;102030.97;5051995;28;20079;-59
2023/08/10 09:31:27;;;;;;;4.93;2.10;;;;;;;24.64;41.30;102026.44;5052166;28;20061;-59
2023/08/10 09:33:57;;;;;;;2.88;2.00;;;;;;;24.64;42.30;102034.53;5051896;28;20071;-60
2023/08/10 09:36:27;;;;;;;4.72;3.08;;;;;;;24.62;42.42;102025.56;5033852;28;20478;-60
2023/08/10 09:38:54;;;;;;;3.55;2.10;;;;;;;24.61;43.35;102031.91;5051820;28;20479;-60
2023/08/10 09:41:20;;;;;;;4.28;2.70;;;;;;;24.60;42.47;102023.88;5051604;28;20489;-60
2023/08/10 09:43:46;;;;;;;8.15;5.07;;;;;;;24.72;41.76;102024.41;5051539;28;20036;-59
2023/08/10 09:46:14;;;;;;;5.50;3.13;;;;;;;24.71;42.78;102017.22;5051494;28;20446;-60
2023/08/10 09:48:45;;;;;;;5.00;2.38;;;;;;;24.84;42.42;102027.66;5051897;28;20029;-60
2023/08/10 09:51:11;;;;;;;3.93;1.83;;;;;;;24.87;42.82;102024.84;5051763;28;20029;-60
2023/08/10 09:53:37;;;;;;;4.90;2.03;;;;;;;24.86;45.23;102028.50;5055263;28;20029;-60
2023/08/10 09:56:07;;;;;;;5.75;2.30;;;;;;;24.53;42.39;102020.44;5037316;28;20031;-60
2023/08/10 09:58:36;;;;;;;4.97;1.98;;;;;;;24.40;44.30;102019.91;5055339;28;20037;-60
2023/08/10 10:01:02;;;;;;;4.55;2.40;;;;;;;24.41;44.54;102015.38;5054732;28;20454;-60
2023/08/10 10:03:29;;;;;;;3.90;2.20;;;;;;;24.44;44.67;102012.59;5055148;28;20414;-59
2023/08/10 10:05:56;;;;;;;5.88;2.20;;;;;;;24.55;42.74;102017.72;5053870;28;20036;-60
2023/08/10 10:08:23;;;;;;;8.27;3.30;;;;;;;24.64;43.99;102031.84;5055458;28;20111;-61
2023/08/10 10:10:48;;;;;;;5.03;2.40;;;;;;;24.61;44.29;102026.50;5055027;28;20029;-60
2023/08/10 10:13:15;;;;;;;4.88;2.10;;;;;;;24.37;43.81;102025.41;5053699;28;20029;-60
2023/08/10 10:15:44;;;;;;;4.15;2.20;;;;;;;24.17;44.59;102020.50;5055183;28;20120;-60
2023/08/10 10:18:11;;;;;;;5.72;2.22;;;;;;;24.50;43.85;102031.38;5054719;28;20364;-59
2023/08/10 10:20:39;;;;;;;5.55;2.33;;;;;;;24.49;44.64;102030.44;5055034;28;20080;-60
2023/08/10 10:23:21;;;;;;;3.53;1.90;;;;;;;24.74;44.02;102036.03;5054826;28;20325;-60
2023/08/10 10:26:01;;;;;;;5.53;2.28;;;;;;;24.64;44.35;102048.06;5054798;28;20025;-61
2023/08/10 10:28:31;;;;;;;4.93;2.28;;;;;;;24.39;44.26;102042.44;5036726;28;20097;-60
2023/08/10 10:31:07;;;;;;;3.67;2.10;;;;;;;24.58;45.56;102048.25;5054837;28;20021;-60
2023/08/10 10:33:34;;;;;;;5.82;2.30;;;;;;;24.34;45.64;102044.38;5054488;28;20028;-61
2023/08/10 10:36:14;;;;;;;3.00;2.10;;;;;;;24.28;45.63;102036.41;5054886;28;20067;-60
2023/08/10 10:38:49;;;;;;;4.50;2.30;;;;;;;24.47;45.28;102034.13;5054620;28;20032;-60
2023/08/10 10:41:36;;;;;;;4.72;2.28;;;;;;;24.63;46.86;102026.50;5036699;28;20127;-60
2023/08/10 10:44:05;;;;;;;4.38;2.28;;;;;;;24.71;44.87;102030.75;5053799;28;20037;-60
2023/08/10 10:46:31;;;;;;;5.68;2.30;;;;;;;24.83;44.37;102025.88;5036395;28;20037;-60
2023/08/10 10:48:56;;;;;;;3.25;2.28;;;;;;;24.92;43.18;102026.50;5054079;28;20151;-60
2023/08/10 10:51:23;;;;;;;7.55;2.30;;;;;;;25.17;44.00;102032.06;5054161;28;20061;-60
2023/08/10 10:53:50;;;;;;;9.73;2.45;;;;;;;25.24;46.89;102024.66;5054224;28;20033;-60
2023/08/10 10:56:16;;;;;;;9.95;2.50;;;;;;;25.29;44.76;102032.63;5054330;28;20083;-60
2023/08/10 10:58:42;;;;;;;4.90;2.30;;;;;;;25.44;43.79;102024.03;5054217;28;20029;-60
2023/08/10 11:01:08;;;;;;;5.95;2.42;;;;;;;25.52;44.60;102023.75;5053624;28;20075;-60
2023/08/10 11:03:34;;;;;;;7.30;2.47;;;;;;;25.73;43.58;102023.03;5053805;28;20048;-60
2023/08/10 11:05:59;;;;;;;4.50;2.42;;;;;;;25.93;42.17;102022.41;5053756;28;20021;-60
2023/08/10 11:08:24;;;;;;;7.03;2.97;;;;;;;25.93;40.93;102022.41;5053954;28;20061;-60
2023/08/10 11:10:51;;;;;;;6.18;2.60;;;;;;;25.88;41.72;102022.56;5053901;28;20079;-60
2023/08/10 11:13:16;;;;;;;5.68;2.70;;;;;;;26.00;41.70;102021.25;5054096;28;20070;-61
2023/08/10 11:15:46;;;;;;;5.60;2.80;;;;;;;26.22;41.34;102016.84;5053690;28;20104;-60
2023/08/10 11:18:12;;;;;;;4.90;2.78;;;;;;;26.63;40.39;102018.97;5053952;28;20039;-60
2023/08/10 11:20:42;;;;;;;5.03;2.50;;;;;;;26.97;41.53;102013.16;5053801;28;20021;-60
2023/08/10 11:23:08;;;;;;;9.68;3.00;;;;;;;27.26;39.99;102013.84;5053569;28;20119;-60